Time;durP1;ratioP1;P1;durP2;ratioP2;P2;SDS_P1;SDS_P2;PMS_P1;PMS_P2;Temp;Humidity;BMP_temperature;BMP_pressure;BME280_temperature;BME280_humidity;BME280_pressure;Samples;Min_cycle;Max_cycle;Signal;HPM_P1;HPM_P2
2023/03/10 00:01:14;;;;;;;;;;;;;;;6.95;75.82;95660.84;109019;1251;97150;-74
2023/03/10 00:03:42;;;;;;;;;;;;;;;6.91;75.61;95662.45;108667;1256;105009;-71
2023/03/10 00:06:12;;;;;;;;;;;;;;;6.87;75.49;95661.13;108969;1250;101430;-70
2023/03/10 00:08:40;;;;;;;;;;;;;;;6.81;75.47;95662.98;108934;1249;99098;-71
2023/03/10 00:11:09;;;;;;;;;;;;;;;6.76;75.42;95664.60;108953;1251;96935;-71
2023/03/10 00:13:37;;;;;;;;;;;;;;;6.70;75.54;95663.11;108960;1250;97310;-70
2023/03/10 00:16:05;;;;;;;;;;;;;;;6.68;75.62;95659.52;109019;1251;105076;-71
2023/03/10 00:18:33;;;;;;;;;;;;;;;6.70;75.70;95658.66;109060;1251;101485;-72
2023/03/10 00:21:01;;;;;;;;;;;;;;;6.69;75.63;95657.85;108960;1249;99788;-73
2023/03/10 00:23:29;;;;;;;;;;;;;;;6.67;75.65;95660.35;109027;1250;96849;-71
2023/03/10 00:25:58;;;;;;;;;;;;;;;6.64;75.60;95662.14;109022;1251;97370;-72
2023/03/10 00:28:27;;;;;;;;;;;;;;;6.61;75.64;95658.44;109015;1253;104990;-73
2023/03/10 00:30:59;;;;;;;;;;;;;;;6.59;75.60;95654.09;109060;1251;101268;-71
2023/03/10 00:33:27;;;;;;;;;;;;;;;6.57;75.83;95653.13;108667;1251;100265;-71
2023/03/10 00:36:11;;;;;;;;;;;;;;;6.57;75.84;95653.88;108961;1249;96896;-71
2023/03/10 00:38:40;;;;;;;;;;;;;;;6.56;76.02;95648.48;108739;1251;97835;-73
2023/03/10 00:41:09;;;;;;;;;;;;;;;6.54;76.05;95650.30;108987;1249;104823;-72
2023/03/10 00:43:37;;;;;;;;;;;;;;;6.55;76.08;95648.36;109051;1251;101037;-71
2023/03/10 00:46:06;;;;;;;;;;;;;;;6.59;76.04;95640.23;108981;1251;99680;-70
2023/03/10 00:48:34;;;;;;;;;;;;;;;6.60;75.99;95628.75;108980;1249;96876;-71
2023/03/10 00:51:03;;;;;;;;;;;;;;;6.63;76.04;95625.45;109041;1249;96915;-71
2023/03/10 00:53:31;;;;;;;;;;;;;;;6.66;76.03;95627.83;109078;1250;104858;-71
2023/03/10 00:55:59;;;;;;;;;;;;;;;6.70;76.01;95629.50;109028;1250;101171;-71
2023/03/10 00:58:27;;;;;;;;;;;;;;;6.76;75.81;95624.91;109020;1251;99878;-71
2023/03/10 01:00:55;;;;;;;;;;;;;;;6.81;75.69;95618.77;108972;1250;97207;-72
2023/03/10 01:03:24;;;;;;;;;;;;;;;6.85;75.63;95616.73;109006;1253;96930;-71
2023/03/10 01:05:53;;;;;;;;;;;;;;;6.90;75.57;95611.40;109055;1251;105153;-70
2023/03/10 01:08:21;;;;;;;;;;;;;;;6.94;75.41;95607.20;108672;1251;101455;-70
2023/03/10 01:10:50;;;;;;;;;;;;;;;6.96;75.44;95603.88;108944;1251;99001;-72
2023/03/10 01:13:18;;;;;;;;;;;;;;;6.95;75.32;95598.98;109002;1249;96887;-71
2023/03/10 01:15:47;;;;;;;;;;;;;;;6.93;75.26;95599.26;109036;1251;97105;-70
2023/03/10 01:18:15;;;;;;;;;;;;;;;6.93;75.13;95595.55;108687;1257;104579;-71
2023/03/10 01:20:44;;;;;;;;;;;;;;;6.94;75.10;95594.23;108915;1251;101397;-71
2023/03/10 01:23:30;;;;;;;;;;;;;;;6.97;75.03;95589.38;108896;1251;99917;-72
2023/03/10 01:25:58;;;;;;;;;;;;;;;7.00;74.93;95587.58;108882;1251;96856;-71
2023/03/10 01:28:26;;;;;;;;;;;;;;;7.04;74.90;95585.35;108875;1251;96944;-71
2023/03/10 01:30:54;;;;;;;;;;;;;;;7.07;74.69;95580.43;108901;1251;105060;-70
2023/03/10 01:33:22;;;;;;;;;;;;;;;7.10;74.66;95579.44;108917;1251;100400;-72
2023/03/10 01:35:50;;;;;;;;;;;;;;;7.14;74.69;95584.11;108877;1251;99820;-70
2023/03/10 01:38:18;;;;;;;;;;;;;;;7.16;74.53;95588.69;108837;1251;97171;-71
2023/03/10 01:40:50;;;;;;;;;;;;;;;7.19;74.43;95583.65;108650;1251;97965;-73
2023/03/10 01:43:20;;;;;;;;;;;;;;;7.20;74.34;95582.52;108901;1251;104085;-71
2023/03/10 01:45:48;;;;;;;;;;;;;;;7.20;74.25;95573.55;108904;1251;101375;-73
2023/03/10 01:48:17;;;;;;;;;;;;;;;7.18;74.00;95569.84;108871;1251;100005;-71
2023/03/10 01:50:46;;;;;;;;;;;;;;;7.14;74.02;95570.92;108836;1251;97425;-71
2023/03/10 01:53:16;;;;;;;;;;;;;;;7.09;73.87;95573.39;108652;1255;97331;-71
2023/03/10 01:55:47;;;;;;;;;;;;;;;7.03;73.70;95568.84;108615;1253;106062;-73
2023/03/10 01:58:15;;;;;;;;;;;;;;;6.94;73.55;95567.05;108853;1251;100369;-71
2023/03/10 02:00:44;;;;;;;;;;;;;;;6.85;73.62;95560.31;108627;1252;99179;-70
2023/03/10 02:03:12;;;;;;;;;;;;;;;6.77;73.41;95561.08;108845;1251;96863;-71
2023/03/10 02:05:50;;;;;;;;;;;;;;;6.65;73.38;95565.81;108923;1251;96918;-71
2023/03/10 02:08:18;;;;;;;;;;;;;;;6.52;73.47;95564.54;108856;1251;105128;-72
2023/03/10 02:10:46;;;;;;;;;;;;;;;6.42;73.69;95563.17;108910;1251;101596;-71
2023/03/10 02:13:14;;;;;;;;;;;;;;;6.32;73.55;95561.23;108901;1251;99896;-70
2023/03/10 02:15:42;;;;;;;;;;;;;;;6.19;73.50;95558.13;108853;1251;96912;-71
2023/03/10 02:18:12;;;;;;;;;;;;;;;6.10;73.71;95557.75;108967;1251;97734;-71
2023/03/10 02:20:40;;;;;;;;;;;;;;;6.03;73.83;95555.59;108756;1251;104540;-71
2023/03/10 02:23:09;;;;;;;;;;;;;;;5.99;74.00;95552.73;109031;1251;101335;-71
2023/03/10 02:25:40;;;;;;;;;;;;;;;5.96;74.09;95552.71;109013;1250;100074;-70
2023/03/10 02:28:08;;;;;;;;;;;;;;;5.92;74.16;95550.79;108966;1249;96901;-71
2023/03/10 02:30:47;;;;;;;;;;;;;;;5.87;74.14;95547.72;109043;1250;96949;-73
2023/03/10 02:33:17;;;;;;;;;;;;;;;5.84;74.34;95550.67;109037;1250;104942;-71
2023/03/10 02:35:46;;;;;;;;;;;;;;;5.81;74.16;95551.29;109027;1251;101508;-72
2023/03/10 02:38:14;;;;;;;;;;;;;;;5.72;74.22;95552.35;108990;1251;99667;-70
2023/03/10 02:40:49;;;;;;;;;;;;;;;5.64;74.40;95547.52;108597;1251;96993;-70
2023/03/10 02:43:23;;;;;;;;;;;;;;;5.59;74.65;95547.63;108712;1250;97917;-71
2023/03/10 02:45:53;;;;;;;;;;;;;;;5.56;74.72;95552.10;108990;1251;105122;-74
2023/03/10 02:48:26;;;;;;;;;;;;;;;5.51;74.85;95552.62;109023;1250;100123;-74
2023/03/10 02:50:55;;;;;;;;;;;;;;;5.47;74.87;95546.61;109020;1250;100021;-74
2023/03/10 02:53:24;;;;;;;;;;;;;;;5.46;74.75;95550.21;108709;1251;96978;-73
2023/03/10 02:55:52;;;;;;;;;;;;;;;5.37;74.86;95544.62;109033;1250;96969;-74
2023/03/10 02:58:21;;;;;;;;;;;;;;;5.34;74.94;95545.60;109008;1250;105338;-73
2023/03/10 03:00:50;;;;;;;;;;;;;;;5.33;74.89;95546.52;109011;1250;101487;-73
2023/03/10 03:03:18;;;;;;;;;;;;;;;5.30;74.75;95541.84;108966;1251;99129;-74
2023/03/10 03:05:46;;;;;;;;;;;;;;;5.24;75.07;95538.95;108670;1251;97141;-70
2023/03/10 03:08:15;;;;;;;;;;;;;;;5.19;75.09;95536.83;108684;1251;96942;-73
2023/03/10 03:10:43;;;;;;;;;;;;;;;5.16;75.04;95532.09;109026;1249;104656;-72
2023/03/10 03:13:11;;;;;;;;;;;;;;;5.13;75.13;95525.61;109013;1250;101512;-72
2023/03/10 03:15:40;;;;;;;;;;;;;;;5.10;75.13;95523.66;108989;1249;98731;-71
2023/03/10 03:18:08;;;;;;;;;;;;;;;5.08;75.22;95521.52;109001;1250;96939;-73
2023/03/10 03:20:37;;;;;;;;;;;;;;;5.05;75.34;95525.55;109008;1250;97091;-71
2023/03/10 03:23:05;;;;;;;;;;;;;;;5.03;75.53;95527.20;109031;1250;104842;-73
2023/03/10 03:25:35;;;;;;;;;;;;;;;5.03;75.53;95532.19;109036;1249;101486;-72
2023/03/10 03:28:04;;;;;;;;;;;;;;;5.01;75.30;95528.91;108976;1250;99960;-71
2023/03/10 03:30:32;;;;;;;;;;;;;;;4.98;75.46;95531.24;109001;1250;96948;-72
2023/03/10 03:33:02;;;;;;;;;;;;;;;4.94;75.44;95528.91;108975;1250;97370;-71
2023/03/10 03:35:35;;;;;;;;;;;;;;;4.90;75.28;95523.27;109079;1250;104489;-71
2023/03/10 03:38:04;;;;;;;;;;;;;;;4.86;75.31;95520.85;108980;1249;101573;-70
2023/03/10 03:40:33;;;;;;;;;;;;;;;4.82;75.37;95517.33;108997;1250;99881;-71
2023/03/10 03:43:01;;;;;;;;;;;;;;;4.79;75.25;95522.24;108959;1250;96866;-73
2023/03/10 03:45:30;;;;;;;;;;;;;;;4.72;75.45;95511.55;109014;1250;96968;-71
2023/03/10 03:47:58;;;;;;;;;;;;;;;4.71;75.59;95507.20;109008;1250;104503;-73
2023/03/10 03:50:26;;;;;;;;;;;;;;;4.67;75.49;95504.09;109001;1250;101455;-73
2023/03/10 03:52:54;;;;;;;;;;;;;;;4.57;75.64;95497.09;108982;1250;100096;-71
2023/03/10 03:55:22;;;;;;;;;;;;;;;4.46;75.82;95498.41;108678;1249;97012;-71
2023/03/10 03:57:50;;;;;;;;;;;;;;;4.37;75.96;95500.09;108670;1251;97296;-71
2023/03/10 04:00:20;;;;;;;;;;;;;;;4.35;75.97;95498.38;109002;1251;105322;-71
2023/03/10 04:02:48;;;;;;;;;;;;;;;4.35;76.14;95495.06;108975;1250;100416;-71
2023/03/10 04:05:17;;;;;;;;;;;;;;;4.31;75.93;95493.45;108977;1250;99866;-71
2023/03/10 04:07:47;;;;;;;;;;;;;;;4.26;75.77;95490.48;108963;1249;96872;-70
2023/03/10 04:10:16;;;;;;;;;;;;;;;4.18;75.83;95484.98;108388;1251;97490;-71
2023/03/10 04:12:44;;;;;;;;;;;;;;;4.15;75.83;95480.84;108689;1250;105948;-71
2023/03/10 04:15:12;;;;;;;;;;;;;;;4.12;75.92;95477.13;109015;1249;101267;-71
2023/03/10 04:17:40;;;;;;;;;;;;;;;4.11;75.85;95472.30;108953;1251;100079;-71
2023/03/10 04:20:12;;;;;;;;;;;;;;;4.09;75.93;95471.75;109042;1249;96913;-72
2023/03/10 04:22:40;;;;;;;;;;;;;;;4.09;76.07;95463.98;109053;1249;97064;-71
2023/03/10 04:25:08;;;;;;;;;;;;;;;4.10;76.17;95467.18;109052;1250;104572;-72
2023/03/10 04:27:36;;;;;;;;;;;;;;;4.10;76.16;95464.52;109019;1250;101303;-70
2023/03/10 04:30:05;;;;;;;;;;;;;;;4.09;76.22;95463.58;109029;1249;108585;-72
2023/03/10 04:32:33;;;;;;;;;;;;;;;4.08;76.28;95460.38;109042;1249;96868;-71
2023/03/10 04:35:01;;;;;;;;;;;;;;;4.07;76.24;95457.46;109087;1250;97853;-72
2023/03/10 04:37:29;;;;;;;;;;;;;;;4.05;76.13;95455.09;108742;1249;104871;-71
2023/03/10 04:39:57;;;;;;;;;;;;;;;4.04;76.32;95450.75;108664;1250;101387;-71
2023/03/10 04:42:26;;;;;;;;;;;;;;;4.07;76.44;95440.59;109044;1249;100025;-71
2023/03/10 04:44:54;;;;;;;;;;;;;;;4.08;76.53;95438.20;108996;1250;96948;-71
2023/03/10 04:47:22;;;;;;;;;;;;;;;4.10;76.47;95434.77;109047;1250;96926;-73
2023/03/10 04:49:50;;;;;;;;;;;;;;;4.10;76.36;95436.48;109092;1250;103987;-73
2023/03/10 04:52:18;;;;;;;;;;;;;;;4.06;76.37;95432.83;109064;1249;101426;-71
2023/03/10 04:54:46;;;;;;;;;;;;;;;4.00;76.33;95433.27;108991;1249;100002;-72
2023/03/10 04:57:15;;;;;;;;;;;;;;;3.98;76.55;95429.59;109029;1249;96849;-71
2023/03/10 04:59:43;;;;;;;;;;;;;;;3.98;76.40;95424.14;109010;1250;97149;-71
2023/03/10 05:02:11;;;;;;;;;;;;;;;3.96;76.42;95423.77;108744;1254;104006;-72
2023/03/10 05:04:39;;;;;;;;;;;;;;;3.89;76.29;95416.16;109035;1249;101382;-71
2023/03/10 05:07:07;;;;;;;;;;;;;;;3.85;76.35;95419.62;108673;1251;101035;-71
2023/03/10 05:09:36;;;;;;;;;;;;;;;3.81;76.32;95417.14;108974;1249;96928;-73
2023/03/10 05:12:05;;;;;;;;;;;;;;;3.76;76.14;95418.36;109037;1249;96942;-73
2023/03/10 05:14:33;;;;;;;;;;;;;;;3.71;76.14;95421.73;108669;1251;105062;-71
2023/03/10 05:17:01;;;;;;;;;;;;;;;3.66;76.05;95413.84;108959;1249;110197;-71
2023/03/10 05:19:29;;;;;;;;;;;;;;;3.58;76.00;95410.94;108992;1249;99542;-71
2023/03/10 05:21:57;;;;;;;;;;;;;;;3.52;76.19;95412.21;109004;1250;97132;-71
2023/03/10 05:24:25;;;;;;;;;;;;;;;3.50;76.29;95407.10;109059;1250;97275;-71
2023/03/10 05:26:53;;;;;;;;;;;;;;;3.47;76.31;95404.59;108730;1251;104171;-73
2023/03/10 05:29:21;;;;;;;;;;;;;;;3.43;76.42;95404.32;109003;1250;101264;-73
2023/03/10 05:31:48;;;;;;;;;;;;;;;3.41;76.75;95400.89;108998;1249;99801;-73
2023/03/10 05:34:16;;;;;;;;;;;;;;;3.43;76.84;95398.73;109009;1249;97218;-70
2023/03/10 05:36:44;;;;;;;;;;;;;;;3.45;76.84;95391.71;109043;1250;97103;-73
2023/03/10 05:39:12;;;;;;;;;;;;;;;3.48;77.11;95393.21;108663;1251;106705;-71
2023/03/10 05:41:40;;;;;;;;;;;;;;;3.48;77.13;95388.83;109035;1249;101646;-71
2023/03/10 05:44:08;;;;;;;;;;;;;;;3.48;77.30;95381.23;108987;1250;99779;-71
2023/03/10 05:46:36;;;;;;;;;;;;;;;3.51;77.43;95376.31;108698;1251;97062;-69
2023/03/10 05:49:04;;;;;;;;;;;;;;;3.54;77.48;95378.35;109094;1249;97035;-72
2023/03/10 05:51:32;;;;;;;;;;;;;;;3.57;77.62;95373.65;109080;1250;103547;-73
2023/03/10 05:54:00;;;;;;;;;;;;;;;3.62;77.64;95375.83;109039;1250;101336;-73
2023/03/10 05:56:28;;;;;;;;;;;;;;;3.66;77.75;95377.17;109012;1250;99623;-74
2023/03/10 05:58:56;;;;;;;;;;;;;;;3.72;77.94;95377.89;109022;1250;97201;-73
2023/03/10 06:01:24;;;;;;;;;;;;;;;3.77;78.13;95374.84;109070;1249;96947;-74
2023/03/10 06:03:52;;;;;;;;;;;;;;;3.84;78.11;95373.84;109026;1250;104818;-73
2023/03/10 06:06:20;;;;;;;;;;;;;;;3.92;78.21;95379.67;108676;1251;101290;-73
2023/03/10 06:08:48;;;;;;;;;;;;;;;3.99;78.37;95374.52;108946;1251;100376;-73
2023/03/10 06:11:17;;;;;;;;;;;;;;;4.07;78.58;95365.61;109012;1250;96923;-74
2023/03/10 06:13:45;;;;;;;;;;;;;;;4.16;78.49;95358.63;109024;1250;97418;-73
2023/03/10 06:16:13;;;;;;;;;;;;;;;4.26;78.81;95350.23;108731;1256;104200;-72
2023/03/10 06:18:41;;;;;;;;;;;;;;;4.38;78.98;95346.59;108677;1250;100538;-75
2023/03/10 06:21:10;;;;;;;;;;;;;;;4.51;79.00;95344.23;109043;1250;99320;-70
2023/03/10 06:23:38;;;;;;;;;;;;;;;4.62;79.00;95344.38;109003;1250;96931;-69
2023/03/10 06:26:08;;;;;;;;;;;;;;;4.75;79.08;95346.77;109066;1250;96923;-70
2023/03/10 06:28:37;;;;;;;;;;;;;;;4.87;78.98;95337.23;109083;1249;105490;-72
2023/03/10 06:31:07;;;;;;;;;;;;;;;4.99;79.01;95336.54;109024;1250;101035;-71
2023/03/10 06:33:35;;;;;;;;;;;;;;;5.10;78.84;95332.19;108776;1251;98788;-71
2023/03/10 06:36:03;;;;;;;;;;;;;;;5.24;78.61;95332.39;108992;1249;96948;-70
2023/03/10 06:38:31;;;;;;;;;;;;;;;5.43;78.34;95335.80;108995;1249;97001;-69
2023/03/10 06:40:59;;;;;;;;;;;;;;;5.63;78.09;95329.73;108682;1249;105237;-72
2023/03/10 06:43:27;;;;;;;;;;;;;;;5.84;77.75;95324.94;109038;1249;101163;-69
2023/03/10 06:45:55;;;;;;;;;;;;;;;6.04;77.46;95324.83;109009;1249;100131;-72
2023/03/10 06:48:23;;;;;;;;;;;;;;;6.21;77.19;95327.12;109007;1250;97338;-74
2023/03/10 06:50:51;;;;;;;;;;;;;;;6.33;76.77;95331.46;109081;1250;96965;-72
2023/03/10 06:53:20;;;;;;;;;;;;;;;6.45;76.56;95324.71;109092;1250;104415;-71
2023/03/10 06:55:59;;;;;;;;;;;;;;;6.59;76.30;95320.08;108665;1251;102515;-72
2023/03/10 06:58:28;;;;;;;;;;;;;;;6.76;76.05;95314.67;108990;1250;99855;-74
2023/03/10 07:00:56;;;;;;;;;;;;;;;6.97;75.71;95311.52;109013;1250;96914;-73
2023/03/10 07:03:25;;;;;;;;;;;;;;;7.15;75.24;95316.48;109029;1249;97492;-72
2023/03/10 07:05:53;;;;;;;;;;;;;;;7.30;74.99;95314.34;109016;1250;105602;-73
2023/03/10 07:08:21;;;;;;;;;;;;;;;7.45;74.76;95311.61;108723;1251;101328;-73
2023/03/10 07:10:49;;;;;;;;;;;;;;;7.67;74.50;95303.04;109014;1250;99957;-72
2023/03/10 07:13:17;;;;;;;;;;;;;;;7.86;74.09;95299.38;108966;1250;96874;-72
2023/03/10 07:15:46;;;;;;;;;;;;;;;8.04;73.59;95291.80;108991;1250;98297;-72
2023/03/10 07:18:14;;;;;;;;;;;;;;;8.22;73.01;95291.20;108963;1251;105111;-74
2023/03/10 07:20:43;;;;;;;;;;;;;;;8.44;72.64;95288.56;108945;1249;101499;-73
2023/03/10 07:23:12;;;;;;;;;;;;;;;8.67;71.93;95286.92;108846;1251;99396;-73
2023/03/10 07:25:41;;;;;;;;;;;;;;;8.89;71.51;95280.94;108620;1251;96974;-71
2023/03/10 07:28:09;;;;;;;;;;;;;;;9.16;70.76;95275.52;108906;1250;96948;-73
2023/03/10 07:30:37;;;;;;;;;;;;;;;9.45;70.10;95269.87;108924;1251;104786;-73
2023/03/10 07:33:05;;;;;;;;;;;;;;;9.75;69.42;95263.12;108952;1250;101309;-72
2023/03/10 07:35:33;;;;;;;;;;;;;;;10.05;68.70;95266.41;108920;1251;99290;-72
2023/03/10 07:38:01;;;;;;;;;;;;;;;10.32;68.11;95265.19;108922;1250;97191;-73
2023/03/10 07:40:29;;;;;;;;;;;;;;;10.57;67.60;95265.05;108916;1250;96958;-72
2023/03/10 07:42:57;;;;;;;;;;;;;;;10.81;67.11;95271.95;108969;1250;104933;-73
2023/03/10 07:45:26;;;;;;;;;;;;;;;11.07;66.52;95271.50;108968;1250;101267;-74
2023/03/10 07:47:55;;;;;;;;;;;;;;;11.33;65.92;95273.28;108985;1250;98936;-75
2023/03/10 07:50:22;;;;;;;;;;;;;;;11.61;65.29;95269.90;108856;1251;96920;-72
2023/03/10 07:52:51;;;;;;;;;;;;;;;11.83;64.79;95272.74;108985;1250;97046;-74
2023/03/10 07:55:19;;;;;;;;;;;;;;;11.95;64.28;95259.81;108850;1251;106149;-75
2023/03/10 07:57:47;;;;;;;;;;;;;;;12.06;63.20;95255.16;108765;1251;212112;-73
2023/03/10 08:00:15;;;;;;;;;;;;;;;12.29;62.74;95249.00;108969;1250;99951;-73
2023/03/10 08:02:43;;;;;;;;;;;;;;;12.59;62.09;95244.38;108886;1251;96889;-73
2023/03/10 08:05:13;;;;;;;;;;;;;;;12.94;61.88;95241.73;108998;1249;97059;-73
2023/03/10 08:07:42;;;;;;;;;;;;;;;13.27;61.40;95237.57;109038;1250;105633;-73
2023/03/10 08:10:10;;;;;;;;;;;;;;;13.60;60.75;95242.39;108755;1251;100156;-73
2023/03/10 08:12:38;;;;;;;;;;;;;;;13.90;60.09;95237.05;108664;1249;98528;-72
2023/03/10 08:15:07;;;;;;;;;;;;;;;14.23;59.56;95233.20;108976;1249;96862;-73
2023/03/10 08:17:35;;;;;;;;;;;;;;;14.60;59.36;95235.98;108689;1251;97060;-73
2023/03/10 08:20:05;;;;;;;;;;;;;;;14.98;58.48;95235.75;108961;1250;104944;-73
2023/03/10 08:22:33;;;;;;;;;;;;;;;15.36;58.09;95234.46;108728;1250;101384;-74
2023/03/10 08:25:01;;;;;;;;;;;;;;;15.68;57.41;95231.51;108636;1251;100258;-72
2023/03/10 08:27:30;;;;;;;;;;;;;;;15.97;56.48;95220.39;108915;1250;96853;-71
2023/03/10 08:29:58;;;;;;;;;;;;;;;16.19;55.82;95219.00;108856;1251;96954;-71
2023/03/10 08:32:26;;;;;;;;;;;;;;;16.41;55.23;95210.98;108620;1250;105075;-72
2023/03/10 08:34:54;;;;;;;;;;;;;;;16.60;54.80;95202.91;108915;1251;99986;-71
2023/03/10 08:37:22;;;;;;;;;;;;;;;16.64;53.81;95195.98;108873;1249;99906;-71
2023/03/10 08:39:52;;;;;;;;;;;;;;;16.71;53.71;95195.34;108898;1250;96935;-72
2023/03/10 08:42:20;;;;;;;;;;;;;;;16.74;53.35;95195.66;108936;1250;96934;-71
2023/03/10 08:44:48;;;;;;;;;;;;;;;16.59;51.96;95195.34;108921;1250;103901;-71
2023/03/10 08:47:16;;;;;;;;;;;;;;;16.33;51.55;95193.75;108881;1251;101305;-71
2023/03/10 08:49:44;;;;;;;;;;;;;;;16.00;51.21;95195.02;108851;1250;99104;-71
2023/03/10 08:52:12;;;;;;;;;;;;;;;15.72;51.06;95190.98;108901;1250;96885;-71
2023/03/10 08:54:40;;;;;;;;;;;;;;;15.65;50.91;95189.85;108872;1251;97679;-73
2023/03/10 08:57:08;;;;;;;;;;;;;;;15.65;50.65;95189.41;108888;1251;103335;-72
2023/03/10 08:59:36;;;;;;;;;;;;;;;15.73;50.78;95189.88;108854;1251;101614;-74
2023/03/10 09:02:04;;;;;;;;;;;;;;;15.91;50.56;95186.02;108873;1250;98551;-72
2023/03/10 09:04:32;;;;;;;;;;;;;;;16.13;50.36;95182.26;108897;1250;96908;-72
2023/03/10 09:07:00;;;;;;;;;;;;;;;16.34;50.26;95181.34;109061;1249;97699;-73
2023/03/10 09:09:28;;;;;;;;;;;;;;;16.51;50.12;95180.02;109023;1249;113188;-73
2023/03/10 09:11:56;;;;;;;;;;;;;;;16.64;50.05;95179.84;108613;1251;101431;-72
2023/03/10 09:14:24;;;;;;;;;;;;;;;16.64;49.57;95178.11;108991;1250;98599;-74
2023/03/10 09:16:52;;;;;;;;;;;;;;;16.65;49.13;95180.36;108660;1255;96948;-72
2023/03/10 09:19:20;;;;;;;;;;;;;;;16.76;48.49;95175.79;108650;1249;96996;-74
2023/03/10 09:21:48;;;;;;;;;;;;;;;16.96;48.22;95169.86;108924;1249;104550;-73
2023/03/10 09:24:17;;;;;;;;;;;;;;;17.27;48.24;95166.27;108980;1250;101346;-72
2023/03/10 09:26:45;;;;;;;;;;;;;;;17.66;48.28;95167.02;109003;1250;99748;-73
2023/03/10 09:29:13;;;;;;;;;;;;;;;17.84;47.06;95164.13;108978;1249;97100;-73
2023/03/10 09:31:42;;;;;;;;;;;;;;;17.99;46.68;95164.61;108733;1250;97599;-73
2023/03/10 09:34:11;;;;;;;;;;;;;;;18.24;46.17;95166.30;109050;1250;105268;-73
2023/03/10 09:36:39;;;;;;;;;;;;;;;18.33;45.56;95161.48;108978;1250;101487;-74
2023/03/10 09:39:07;;;;;;;;;;;;;;;18.50;45.97;95163.41;108976;1249;99862;-72
2023/03/10 09:41:52;;;;;;;;;;;;;;;18.67;45.54;95166.30;108652;1251;97454;-74
2023/03/10 09:44:21;;;;;;;;;;;;;;;18.83;44.80;95164.84;108986;1250;96954;-73
2023/03/10 09:46:55;;;;;;;;;;;;;;;18.98;44.58;95157.52;109052;1250;104859;-73
2023/03/10 09:49:49;;;;;;;;;;;;;;;19.15;44.52;95158.70;108732;1251;100545;-74
2023/03/10 09:52:20;;;;;;;;;;;;;;;19.27;43.83;95158.84;108989;1250;99053;-73
2023/03/10 09:54:54;;;;;;;;;;;;;;;19.40;43.42;95152.73;108988;1250;96887;-73
2023/03/10 09:57:23;;;;;;;;;;;;;;;19.65;43.78;95150.98;108996;1251;96940;-74
2023/03/10 09:59:54;;;;;;;;;;;;;;;19.87;43.51;95144.70;109010;1250;104888;-74
2023/03/10 10:02:24;;;;;;;;;;;;;;;19.93;42.57;95135.27;108971;1250;101334;-72
2023/03/10 10:04:54;;;;;;;;;;;;;;;20.02;42.64;95134.87;108942;1251;99934;-73
2023/03/10 10:07:23;;;;;;;;;;;;;;;19.99;41.75;95136.52;108990;1250;97007;-73
2023/03/10 10:09:57;;;;;;;;;;;;;;;19.95;41.34;95126.55;108950;1250;97060;-74
2023/03/10 10:12:26;;;;;;;;;;;;;;;20.05;41.55;95125.02;109020;1250;104826;-73
2023/03/10 10:14:59;;;;;;;;;;;;;;;20.10;40.77;95120.02;108970;1251;101329;-75
2023/03/10 10:17:33;;;;;;;;;;;;;;;20.12;40.13;95117.66;108591;1251;98897;-76
2023/03/10 10:20:05;;;;;;;;;;;;;;;20.08;39.71;95104.84;108920;1250;96893;-73
2023/03/10 10:22:36;;;;;;;;;;;;;;;20.16;39.75;95105.63;108968;1250;97283;-72
2023/03/10 10:25:13;;;;;;;;;;;;;;;20.31;39.79;95106.45;108747;1251;104824;-73
2023/03/10 10:27:44;;;;;;;;;;;;;;;20.47;39.38;95100.31;109007;1251;101338;-73
2023/03/10 10:30:30;;;;;;;;;;;;;;;20.51;38.90;95104.69;108822;1251;99595;-72
2023/03/10 10:32:58;;;;;;;;;;;;;;;20.54;38.74;95099.23;108920;1251;96869;-73
2023/03/10 10:35:29;;;;;;;;;;;;;;;20.63;38.53;95091.39;109077;1249;96931;-72
2023/03/10 10:38:05;;;;;;;;;;;;;;;20.66;37.97;95090.95;109017;1251;104478;-72
2023/03/10 10:40:35;;;;;;;;;;;;;;;20.63;37.35;95087.57;108896;1249;101366;-72
2023/03/10 10:43:06;;;;;;;;;;;;;;;20.59;37.58;95084.71;108904;1251;99683;-73
2023/03/10 10:45:36;;;;;;;;;;;;;;;20.58;37.32;95082.27;108926;1251;96999;-72
2023/03/10 10:48:04;;;;;;;;;;;;;;;20.65;37.71;95076.26;108526;1255;98485;-72
2023/03/10 10:50:34;;;;;;;;;;;;;;;20.63;37.71;95068.66;108552;1255;104899;-72
2023/03/10 10:53:23;;;;;;;;;;;;;;;20.60;37.84;95066.14;108542;1257;100315;-72
2023/03/10 10:56:05;;;;;;;;;;;;;;;20.65;37.76;95063.10;108572;1255;99477;-74
2023/03/10 10:58:33;;;;;;;;;;;;;;;20.72;37.79;95059.94;108277;1255;97356;-74
2023/03/10 11:01:06;;;;;;;;;;;;;;;20.87;37.76;95058.19;108552;1255;97413;-73
2023/03/10 11:03:34;;;;;;;;;;;;;;;21.02;37.71;95046.52;108396;1256;103708;-72
2023/03/10 11:06:12;;;;;;;;;;;;;;;21.22;37.54;95041.64;108551;1256;101375;-74
2023/03/10 11:08:43;;;;;;;;;;;;;;;21.49;36.98;95039.36;108387;1256;99907;-72
2023/03/10 11:11:28;;;;;;;;;;;;;;;21.55;36.87;95043.41;108567;1256;97034;-72
2023/03/10 11:14:14;;;;;;;;;;;;;;;21.62;36.93;95035.89;108570;1256;97838;-74
2023/03/10 11:16:43;;;;;;;;;;;;;;;21.75;37.15;95030.68;108549;1255;104893;-73
2023/03/10 11:19:25;;;;;;;;;;;;;;;21.88;36.61;95026.62;108727;1251;100297;-74
2023/03/10 11:21:56;;;;;;;;;;;;;;;21.75;36.23;95020.11;108786;1252;100318;-73
2023/03/10 11:24:33;;;;;;;;;;;;;;;21.57;36.21;95013.59;108609;1251;97010;-72
2023/03/10 11:27:17;;;;;;;;;;;;;;;21.55;36.45;95008.66;108884;1253;97558;-73
2023/03/10 11:29:54;;;;;;;;;;;;;;;21.65;36.62;95001.88;108789;1253;104858;-74
2023/03/10 11:32:41;;;;;;;;;;;;;;;21.61;36.95;95000.41;108791;1253;101007;-72
2023/03/10 11:35:27;;;;;;;;;;;;;;;21.54;36.83;95001.17;108789;1252;99274;-74
2023/03/10 11:38:07;;;;;;;;;;;;;;;21.45;36.49;94995.69;108488;1254;97010;-73
2023/03/10 11:40:41;;;;;;;;;;;;;;;21.27;36.46;94989.71;108829;1253;96993;-72
2023/03/10 11:43:28;;;;;;;;;;;;;;;21.28;36.58;94988.11;108880;1253;103966;-73
2023/03/10 11:46:00;;;;;;;;;;;;;;;21.27;36.06;94978.02;108538;1254;100391;-75
2023/03/10 11:48:28;;;;;;;;;;;;;;;21.12;35.42;94974.27;108792;1253;98284;-73
2023/03/10 11:50:58;;;;;;;;;;;;;;;20.91;35.23;94978.41;108811;1252;96955;-73
2023/03/10 11:53:42;;;;;;;;;;;;;;;20.93;35.73;94973.79;108816;1251;97050;-72
2023/03/10 11:56:13;;;;;;;;;;;;;;;21.11;36.18;94968.44;108583;1251;105791;-73
2023/03/10 11:59:08;;;;;;;;;;;;;;;21.32;36.12;94975.33;108645;1254;101474;-72
2023/03/10 12:01:46;;;;;;;;;;;;;;;21.52;36.19;94969.42;108811;1251;99158;-72
2023/03/10 12:04:21;;;;;;;;;;;;;;;21.63;35.89;94963.92;108822;1251;96935;-73
2023/03/10 12:06:49;;;;;;;;;;;;;;;21.66;35.95;94961.42;108893;1251;97035;-73
2023/03/10 12:09:30;;;;;;;;;;;;;;;21.80;35.93;94971.02;108896;1252;104738;-74
2023/03/10 12:11:58;;;;;;;;;;;;;;;21.88;35.40;94967.58;108835;1253;101417;-73
2023/03/10 12:14:26;;;;;;;;;;;;;;;22.02;35.56;94966.88;108837;1251;99196;-72
2023/03/10 12:16:54;;;;;;;;;;;;;;;22.23;35.41;94957.52;108811;1252;97153;-73
2023/03/10 12:19:22;;;;;;;;;;;;;;;22.59;35.24;94951.28;108881;1251;96926;-72
2023/03/10 12:22:09;;;;;;;;;;;;;;;22.75;34.85;94954.89;108957;1250;104874;-73
2023/03/10 12:24:46;;;;;;;;;;;;;;;22.53;33.99;94944.17;108944;1251;101587;-73
2023/03/10 12:27:15;;;;;;;;;;;;;;;22.17;34.21;94940.00;108687;1250;100068;-73
2023/03/10 12:29:44;;;;;;;;;;;;;;;21.74;34.28;94939.53;109004;1250;96914;-72
2023/03/10 12:32:30;;;;;;;;;;;;;;;21.18;34.49;94934.67;109029;1251;96984;-74
2023/03/10 12:35:17;;;;;;;;;;;;;;;20.83;35.02;94935.29;109042;1251;105470;-73
2023/03/10 12:37:45;;;;;;;;;;;;;;;20.71;35.41;94931.94;108924;1250;100721;-73
2023/03/10 12:40:35;;;;;;;;;;;;;;;20.86;35.78;94934.77;108589;1251;99316;-74
2023/03/10 12:43:23;;;;;;;;;;;;;;;21.07;35.49;94934.84;108203;1259;96993;-73
2023/03/10 12:45:52;;;;;;;;;;;;;;;21.28;34.99;94929.77;108195;1259;97020;-73
2023/03/10 12:48:21;;;;;;;;;;;;;;;21.46;34.49;94928.44;108252;1259;104860;-73
2023/03/10 12:50:58;;;;;;;;;;;;;;;21.57;34.28;94931.02;108289;1259;101357;-73
2023/03/10 12:53:26;;;;;;;;;;;;;;;21.63;33.63;94934.34;108256;1259;99376;-74